This is the latest recevied weather packets stored in our database for station/object JF7ELG-13. If no packets are shown the sender has not sent any weather packets the latest 10 day(s).
| Time | Temp. | Humidity | Pressure | Rain* | Wind** | Luminosity | Snow |
|---|---|---|---|---|---|---|---|
| 1778236438 | 17.22° C | 94% | 999.5 hPa | 7.87 mm | - | - | - |
| 1778235537 | 17.22° C | 93% | 999.2 hPa | 6.1 mm | - | - | - |
| 1778234599 | 17.78° C | 92% | 999 hPa | 2.03 mm | - | - | - |
| 1778233725 | 17.78° C | 91% | 998.5 hPa | 0 mm | - | - | - |
| 1778232799 | 18.33° C | 91% | 998.3 hPa | 0 mm | - | - | - |
| 1778231897 | 18.33° C | 91% | 998.6 hPa | 0 mm | - | - | - |
| 1778231020 | 18.33° C | 91% | 998.2 hPa | 0 mm | - | - | - |
| 1778230119 | 18.33° C | 90% | 997.9 hPa | 0 mm | - | - | - |
| 1778229221 | 18.89° C | 89% | 998.1 hPa | 0 mm | - | - | - |
| 1778228319 | 18.89° C | 88% | 998.4 hPa | 0 mm | - | - | - |
| 1778227443 | 18.89° C | 88% | 998.4 hPa | 0 mm | - | - | - |
| 1778226513 | 18.89° C | 85% | 998.5 hPa | 0 mm | - | - | - |
| 1778225614 | 20.56° C | 77% | 998.8 hPa | 0 mm | - | - | - |
| 1778224707 | 21.67° C | 72% | 999.4 hPa | 0 mm | - | - | - |
| 1778223828 | 21.67° C | 71% | 999.2 hPa | 0 mm | - | - | - |
| 1778222924 | 22.22° C | 64% | 998.9 hPa | 0 mm | - | - | - |
| 1778222003 | 22.22° C | 62% | 999.3 hPa | 0 mm | - | - | - |
| 1778221102 | 22.78° C | 58% | 999.3 hPa | 0 mm | - | - | - |
| 1778220206 | 22.78° C | 55% | 999.3 hPa | 0 mm | - | - | - |
| 1778219331 | 22.78° C | 53% | 999.7 hPa | 0 mm | - | - | - |
| 1778218410 | 22.78° C | 53% | 999.9 hPa | 0 mm | - | - | - |
| 1778217524 | 22.22° C | 55% | 1000.1 hPa | 0 mm | - | - | - |
| 1778216622 | 22.22° C | 60% | 1000.7 hPa | 0 mm | - | - | - |
| 1778215715 | 22.22° C | 62% | 1001 hPa | 0 mm | - | - | - |
| 1778214818 | 22.22° C | 64% | 1001.4 hPa | 0 mm | - | - | - |
* Rain latest hour (hover to see other rain measurements)
** Current wind speed in m/s (hover to see current wind gust speed)